sensor_id;sensor_type;location;lat;lon;timestamp;P1;durP1;ratioP1;P2;durP2;ratioP2
71626;SDS011;59475;52.464;13.590;2023-05-07T00:00:16;16.10;;;11.00;;
71626;SDS011;59475;52.464;13.590;2023-05-07T00:02:43;18.55;;;12.65;;
71626;SDS011;59475;52.464;13.590;2023-05-07T00:05:09;18.20;;;12.53;;
71626;SDS011;59475;52.464;13.590;2023-05-07T00:07:35;14.77;;;11.75;;
71626;SDS011;59475;52.464;13.590;2023-05-07T00:10:00;18.63;;;12.53;;
71626;SDS011;59475;52.464;13.590;2023-05-07T00:12:26;16.20;;;11.27;;
71626;SDS011;59475;52.464;13.590;2023-05-07T00:14:52;20.63;;;11.33;;
71626;SDS011;59475;52.464;13.590;2023-05-07T00:17:17;16.37;;;11.13;;
71626;SDS011;59475;52.464;13.590;2023-05-07T00:19:42;15.85;;;11.02;;
71626;SDS011;59475;52.464;13.590;2023-05-07T00:22:08;15.93;;;10.67;;
71626;SDS011;59475;52.464;13.590;2023-05-07T00:24:33;17.53;;;11.00;;
71626;SDS011;59475;52.464;13.590;2023-05-07T00:26:59;14.97;;;11.07;;
71626;SDS011;59475;52.464;13.590;2023-05-07T00:29:25;16.60;;;11.02;;
71626;SDS011;59475;52.464;13.590;2023-05-07T00:31:50;14.80;;;10.93;;
71626;SDS011;59475;52.464;13.590;2023-05-07T00:34:16;16.33;;;11.23;;
71626;SDS011;59475;52.464;13.590;2023-05-07T00:36:41;17.83;;;11.35;;
71626;SDS011;59475;52.464;13.590;2023-05-07T00:39:06;16.17;;;10.93;;
71626;SDS011;59475;52.464;13.590;2023-05-07T00:41:32;17.10;;;11.67;;
71626;SDS011;59475;52.464;13.590;2023-05-07T00:43:57;17.33;;;11.23;;
71626;SDS011;59475;52.464;13.590;2023-05-07T00:46:23;14.73;;;11.27;;
71626;SDS011;59475;52.464;13.590;2023-05-07T00:48:49;14.93;;;11.33;;
71626;SDS011;59475;52.464;13.590;2023-05-07T00:51:15;18.45;;;11.80;;
71626;SDS011;59475;52.464;13.590;2023-05-07T00:53:42;19.05;;;12.23;;
71626;SDS011;59475;52.464;13.590;2023-05-07T00:56:08;15.30;;;11.97;;
71626;SDS011;59475;52.464;13.590;2023-05-07T00:58:33;15.38;;;11.60;;
71626;SDS011;59475;52.464;13.590;2023-05-07T01:00:59;17.05;;;12.13;;
71626;SDS011;59475;52.464;13.590;2023-05-07T01:03:25;18.53;;;12.00;;
71626;SDS011;59475;52.464;13.590;2023-05-07T01:05:51;16.10;;;12.77;;
71626;SDS011;59475;52.464;13.590;2023-05-07T01:08:18;16.52;;;11.77;;
71626;SDS011;59475;52.464;13.590;2023-05-07T01:10:44;16.87;;;11.90;;
71626;SDS011;59475;52.464;13.590;2023-05-07T01:13:10;14.95;;;11.32;;
71626;SDS011;59475;52.464;13.590;2023-05-07T01:15:37;16.98;;;11.35;;
71626;SDS011;59475;52.464;13.590;2023-05-07T01:18:03;15.97;;;11.90;;
71626;SDS011;59475;52.464;13.590;2023-05-07T01:20:29;14.38;;;11.95;;
71626;SDS011;59475;52.464;13.590;2023-05-07T01:22:55;14.73;;;11.95;;
71626;SDS011;59475;52.464;13.590;2023-05-07T01:25:22;15.02;;;11.40;;
71626;SDS011;59475;52.464;13.590;2023-05-07T01:27:49;15.03;;;11.17;;
71626;SDS011;59475;52.464;13.590;2023-05-07T01:30:15;16.08;;;11.07;;
71626;SDS011;59475;52.464;13.590;2023-05-07T01:32:53;16.83;;;11.63;;
71626;SDS011;59475;52.464;13.590;2023-05-07T01:35:24;13.90;;;10.70;;
71626;SDS011;59475;52.464;13.590;2023-05-07T01:37:53;14.27;;;11.03;;
71626;SDS011;59475;52.464;13.590;2023-05-07T01:40:19;12.63;;;10.05;;
71626;SDS011;59475;52.464;13.590;2023-05-07T01:42:45;14.43;;;10.60;;
71626;SDS011;59475;52.464;13.590;2023-05-07T01:45:13;13.65;;;10.57;;
71626;SDS011;59475;52.464;13.590;2023-05-07T01:47:38;13.73;;;11.13;;
71626;SDS011;59475;52.464;13.590;2023-05-07T01:50:07;14.57;;;10.60;;
71626;SDS011;59475;52.464;13.590;2023-05-07T01:52:35;15.82;;;10.45;;
71626;SDS011;59475;52.464;13.590;2023-05-07T01:55:02;12.53;;;9.90;;
71626;SDS011;59475;52.464;13.590;2023-05-07T01:57:28;14.57;;;10.88;;
71626;SDS011;59475;52.464;13.590;2023-05-07T01:59:53;14.63;;;10.80;;
71626;SDS011;59475;52.464;13.590;2023-05-07T02:02:19;14.63;;;10.30;;
71626;SDS011;59475;52.464;13.590;2023-05-07T02:04:44;14.63;;;10.40;;
71626;SDS011;59475;52.464;13.590;2023-05-07T02:07:10;16.92;;;11.57;;
71626;SDS011;59475;52.464;13.590;2023-05-07T02:09:35;14.60;;;10.67;;
71626;SDS011;59475;52.464;13.590;2023-05-07T02:12:01;16.87;;;10.40;;
71626;SDS011;59475;52.464;13.590;2023-05-07T02:14:26;14.13;;;10.50;;
71626;SDS011;59475;52.464;13.590;2023-05-07T02:16:52;14.73;;;10.75;;
71626;SDS011;59475;52.464;13.590;2023-05-07T02:19:17;16.93;;;10.67;;
71626;SDS011;59475;52.464;13.590;2023-05-07T02:21:43;15.43;;;11.23;;
71626;SDS011;59475;52.464;13.590;2023-05-07T02:24:08;18.90;;;10.50;;
71626;SDS011;59475;52.464;13.590;2023-05-07T02:26:34;15.17;;;11.37;;
71626;SDS011;59475;52.464;13.590;2023-05-07T02:28:59;14.80;;;10.77;;
71626;SDS011;59475;52.464;13.590;2023-05-07T02:31:25;13.97;;;10.10;;
71626;SDS011;59475;52.464;13.590;2023-05-07T02:33:50;15.50;;;10.50;;
71626;SDS011;59475;52.464;13.590;2023-05-07T02:36:16;15.07;;;11.00;;
71626;SDS011;59475;52.464;13.590;2023-05-07T02:38:41;18.65;;;11.10;;
71626;SDS011;59475;52.464;13.590;2023-05-07T02:41:06;15.27;;;10.13;;
71626;SDS011;59475;52.464;13.590;2023-05-07T02:43:32;14.50;;;10.60;;
71626;SDS011;59475;52.464;13.590;2023-05-07T02:46:04;18.03;;;11.50;;
71626;SDS011;59475;52.464;13.590;2023-05-07T02:48:31;16.10;;;10.50;;
71626;SDS011;59475;52.464;13.590;2023-05-07T02:50:57;13.32;;;10.23;;
71626;SDS011;59475;52.464;13.590;2023-05-07T02:53:24;16.50;;;10.85;;
71626;SDS011;59475;52.464;13.590;2023-05-07T02:55:56;14.10;;;11.10;;
71626;SDS011;59475;52.464;13.590;2023-05-07T02:58:22;13.23;;;10.18;;
71626;SDS011;59475;52.464;13.590;2023-05-07T03:00:48;15.55;;;11.00;;
71626;SDS011;59475;52.464;13.590;2023-05-07T03:03:13;15.33;;;10.67;;
71626;SDS011;59475;52.464;13.590;2023-05-07T03:05:39;19.43;;;11.23;;
71626;SDS011;59475;52.464;13.590;2023-05-07T03:08:05;17.13;;;10.47;;
71626;SDS011;59475;52.464;13.590;2023-05-07T03:10:30;15.40;;;10.93;;
71626;SDS011;59475;52.464;13.590;2023-05-07T03:12:55;14.57;;;10.57;;
71626;SDS011;59475;52.464;13.590;2023-05-07T03:15:21;16.33;;;10.52;;
71626;SDS011;59475;52.464;13.590;2023-05-07T03:17:47;17.60;;;10.70;;
71626;SDS011;59475;52.464;13.590;2023-05-07T03:20:12;16.05;;;10.80;;
71626;SDS011;59475;52.464;13.590;2023-05-07T03:22:38;20.20;;;11.50;;
71626;SDS011;59475;52.464;13.590;2023-05-07T03:25:04;16.70;;;11.05;;
71626;SDS011;59475;52.464;13.590;2023-05-07T03:27:30;20.23;;;10.60;;
71626;SDS011;59475;52.464;13.590;2023-05-07T03:29:55;15.88;;;10.50;;
71626;SDS011;59475;52.464;13.590;2023-05-07T03:32:20;15.57;;;10.33;;
71626;SDS011;59475;52.464;13.590;2023-05-07T03:34:46;16.10;;;10.60;;
71626;SDS011;59475;52.464;13.590;2023-05-07T03:37:11;13.20;;;10.57;;
71626;SDS011;59475;52.464;13.590;2023-05-07T03:39:37;14.80;;;10.90;;
71626;SDS011;59475;52.464;13.590;2023-05-07T03:42:02;17.07;;;10.83;;
71626;SDS011;59475;52.464;13.590;2023-05-07T03:44:28;16.90;;;11.20;;
71626;SDS011;59475;52.464;13.590;2023-05-07T03:46:53;14.82;;;10.98;;
71626;SDS011;59475;52.464;13.590;2023-05-07T03:49:18;16.03;;;10.73;;
71626;SDS011;59475;52.464;13.590;2023-05-07T03:51:44;14.43;;;9.63;;
71626;SDS011;59475;52.464;13.590;2023-05-07T03:54:10;14.90;;;9.85;;
71626;SDS011;59475;52.464;13.590;2023-05-07T03:56:35;10.90;;;8.37;;
71626;SDS011;59475;52.464;13.590;2023-05-07T03:59:01;13.37;;;9.50;;
71626;SDS011;59475;52.464;13.590;2023-05-07T04:01:26;13.87;;;9.87;;
71626;SDS011;59475;52.464;13.590;2023-05-07T04:03:52;16.63;;;10.63;;
71626;SDS011;59475;52.464;13.590;2023-05-07T04:06:17;14.90;;;9.13;;
71626;SDS011;59475;52.464;13.590;2023-05-07T04:08:43;12.60;;;9.13;;
71626;SDS011;59475;52.464;13.590;2023-05-07T04:11:08;14.52;;;10.32;;
71626;SDS011;59475;52.464;13.590;2023-05-07T04:13:34;14.90;;;9.47;;
71626;SDS011;59475;52.464;13.590;2023-05-07T04:16:01;14.33;;;9.43;;
71626;SDS011;59475;52.464;13.590;2023-05-07T04:18:28;13.15;;;8.23;;
71626;SDS011;59475;52.464;13.590;2023-05-07T04:20:53;14.65;;;10.05;;
71626;SDS011;59475;52.464;13.590;2023-05-07T04:23:19;14.20;;;9.60;;
71626;SDS011;59475;52.464;13.590;2023-05-07T04:25:44;14.13;;;9.27;;
71626;SDS011;59475;52.464;13.590;2023-05-07T04:28:10;15.10;;;8.00;;
71626;SDS011;59475;52.464;13.590;2023-05-07T04:30:36;13.48;;;9.02;;
71626;SDS011;59475;52.464;13.590;2023-05-07T04:33:02;12.23;;;8.77;;
71626;SDS011;59475;52.464;13.590;2023-05-07T04:35:27;10.90;;;8.15;;
71626;SDS011;59475;52.464;13.590;2023-05-07T04:37:53;10.53;;;7.57;;
71626;SDS011;59475;52.464;13.590;2023-05-07T04:40:18;12.93;;;8.53;;
71626;SDS011;59475;52.464;13.590;2023-05-07T04:42:43;12.33;;;8.03;;
71626;SDS011;59475;52.464;13.590;2023-05-07T04:45:09;10.52;;;8.10;;
71626;SDS011;59475;52.464;13.590;2023-05-07T04:47:35;12.03;;;8.10;;
71626;SDS011;59475;52.464;13.590;2023-05-07T04:50:01;11.15;;;9.05;;
71626;SDS011;59475;52.464;13.590;2023-05-07T04:52:26;14.37;;;8.10;;
71626;SDS011;59475;52.464;13.590;2023-05-07T04:54:52;11.25;;;8.40;;
71626;SDS011;59475;52.464;13.590;2023-05-07T04:57:17;11.70;;;8.43;;
71626;SDS011;59475;52.464;13.590;2023-05-07T04:59:43;14.03;;;8.60;;
71626;SDS011;59475;52.464;13.590;2023-05-07T05:02:09;11.88;;;7.50;;
71626;SDS011;59475;52.464;13.590;2023-05-07T05:04:35;11.17;;;6.33;;
71626;SDS011;59475;52.464;13.590;2023-05-07T05:07:01;13.80;;;8.20;;
71626;SDS011;59475;52.464;13.590;2023-05-07T05:09:28;11.38;;;6.72;;
71626;SDS011;59475;52.464;13.590;2023-05-07T05:11:54;11.07;;;7.60;;
71626;SDS011;59475;52.464;13.590;2023-05-07T05:14:19;11.00;;;7.40;;
71626;SDS011;59475;52.464;13.590;2023-05-07T05:16:44;10.70;;;7.82;;
71626;SDS011;59475;52.464;13.590;2023-05-07T05:19:10;12.27;;;7.40;;
71626;SDS011;59475;52.464;13.590;2023-05-07T05:21:35;9.77;;;7.20;;
71626;SDS011;59475;52.464;13.590;2023-05-07T05:24:01;10.63;;;7.33;;
71626;SDS011;59475;52.464;13.590;2023-05-07T05:26:26;9.67;;;7.23;;
71626;SDS011;59475;52.464;13.590;2023-05-07T05:28:51;9.73;;;7.00;;
71626;SDS011;59475;52.464;13.590;2023-05-07T05:31:17;11.73;;;6.83;;
71626;SDS011;59475;52.464;13.590;2023-05-07T05:33:42;12.53;;;7.10;;
71626;SDS011;59475;52.464;13.590;2023-05-07T05:36:10;12.13;;;7.83;;
71626;SDS011;59475;52.464;13.590;2023-05-07T05:38:38;9.90;;;7.85;;
71626;SDS011;59475;52.464;13.590;2023-05-07T05:41:03;11.57;;;7.05;;
71626;SDS011;59475;52.464;13.590;2023-05-07T05:43:29;10.83;;;7.43;;
71626;SDS011;59475;52.464;13.590;2023-05-07T05:45:55;11.13;;;7.87;;
71626;SDS011;59475;52.464;13.590;2023-05-07T05:48:21;10.50;;;7.63;;
71626;SDS011;59475;52.464;13.590;2023-05-07T05:50:46;9.23;;;6.87;;
71626;SDS011;59475;52.464;13.590;2023-05-07T05:53:11;12.10;;;7.10;;
71626;SDS011;59475;52.464;13.590;2023-05-07T05:55:37;10.23;;;7.28;;
71626;SDS011;59475;52.464;13.590;2023-05-07T05:58:02;11.63;;;7.20;;
71626;SDS011;59475;52.464;13.590;2023-05-07T06:00:28;12.53;;;7.47;;
71626;SDS011;59475;52.464;13.590;2023-05-07T06:02:54;11.00;;;7.13;;
71626;SDS011;59475;52.464;13.590;2023-05-07T06:05:20;9.00;;;7.25;;
71626;SDS011;59475;52.464;13.590;2023-05-07T06:07:45;13.30;;;6.97;;
71626;SDS011;59475;52.464;13.590;2023-05-07T06:10:11;9.33;;;6.63;;
71626;SDS011;59475;52.464;13.590;2023-05-07T06:12:36;9.47;;;6.27;;
71626;SDS011;59475;52.464;13.590;2023-05-07T06:15:02;10.95;;;6.95;;
71626;SDS011;59475;52.464;13.590;2023-05-07T06:17:27;8.80;;;6.10;;
71626;SDS011;59475;52.464;13.590;2023-05-07T06:19:53;9.37;;;7.30;;
71626;SDS011;59475;52.464;13.590;2023-05-07T06:22:18;11.03;;;7.37;;
71626;SDS011;59475;52.464;13.590;2023-05-07T06:24:44;9.67;;;6.93;;
71626;SDS011;59475;52.464;13.590;2023-05-07T06:27:09;8.87;;;6.33;;
71626;SDS011;59475;52.464;13.590;2023-05-07T06:29:35;11.47;;;6.50;;
71626;SDS011;59475;52.464;13.590;2023-05-07T06:32:10;12.07;;;7.10;;
71626;SDS011;59475;52.464;13.590;2023-05-07T06:34:37;9.52;;;5.95;;
71626;SDS011;59475;52.464;13.590;2023-05-07T06:37:03;8.15;;;5.90;;
71626;SDS011;59475;52.464;13.590;2023-05-07T06:39:28;11.40;;;7.57;;
71626;SDS011;59475;52.464;13.590;2023-05-07T06:41:54;7.93;;;6.10;;
71626;SDS011;59475;52.464;13.590;2023-05-07T06:44:19;9.23;;;6.32;;
71626;SDS011;59475;52.464;13.590;2023-05-07T06:46:45;9.13;;;5.97;;
71626;SDS011;59475;52.464;13.590;2023-05-07T06:49:10;8.60;;;6.53;;
71626;SDS011;59475;52.464;13.590;2023-05-07T06:51:37;6.82;;;5.80;;
71626;SDS011;59475;52.464;13.590;2023-05-07T06:54:03;6.57;;;5.13;;
71626;SDS011;59475;52.464;13.590;2023-05-07T06:56:29;6.90;;;5.22;;
71626;SDS011;59475;52.464;13.590;2023-05-07T06:58:55;6.97;;;5.50;;
71626;SDS011;59475;52.464;13.590;2023-05-07T07:01:20;6.93;;;4.67;;
71626;SDS011;59475;52.464;13.590;2023-05-07T07:03:45;5.80;;;4.47;;
71626;SDS011;59475;52.464;13.590;2023-05-07T07:06:11;5.97;;;5.07;;
71626;SDS011;59475;52.464;13.590;2023-05-07T07:08:37;7.53;;;4.73;;
71626;SDS011;59475;52.464;13.590;2023-05-07T07:11:03;6.32;;;4.75;;
71626;SDS011;59475;52.464;13.590;2023-05-07T07:13:29;6.57;;;4.23;;
71626;SDS011;59475;52.464;13.590;2023-05-07T07:15:55;7.90;;;5.38;;
71626;SDS011;59475;52.464;13.590;2023-05-07T07:18:20;5.27;;;4.50;;
71626;SDS011;59475;52.464;13.590;2023-05-07T07:20:45;6.27;;;4.10;;
71626;SDS011;59475;52.464;13.590;2023-05-07T07:23:11;6.23;;;4.27;;
71626;SDS011;59475;52.464;13.590;2023-05-07T07:25:36;6.18;;;3.92;;
71626;SDS011;59475;52.464;13.590;2023-05-07T07:28:02;5.73;;;4.07;;
71626;SDS011;59475;52.464;13.590;2023-05-07T07:30:27;5.53;;;4.50;;
71626;SDS011;59475;52.464;13.590;2023-05-07T07:32:55;5.10;;;3.20;;
71626;SDS011;59475;52.464;13.590;2023-05-07T07:35:27;6.57;;;4.10;;
71626;SDS011;59475;52.464;13.590;2023-05-07T07:37:53;5.88;;;4.10;;
71626;SDS011;59475;52.464;13.590;2023-05-07T07:40:18;6.47;;;4.00;;
71626;SDS011;59475;52.464;13.590;2023-05-07T07:42:43;5.33;;;4.43;;
71626;SDS011;59475;52.464;13.590;2023-05-07T07:45:09;6.07;;;3.75;;
71626;SDS011;59475;52.464;13.590;2023-05-07T07:47:35;6.00;;;3.88;;
71626;SDS011;59475;52.464;13.590;2023-05-07T07:50:01;4.43;;;2.90;;
71626;SDS011;59475;52.464;13.590;2023-05-07T07:52:26;3.80;;;3.40;;
71626;SDS011;59475;52.464;13.590;2023-05-07T07:54:51;4.93;;;3.70;;
71626;SDS011;59475;52.464;13.590;2023-05-07T07:57:17;5.97;;;3.83;;
71626;SDS011;59475;52.464;13.590;2023-05-07T07:59:42;4.50;;;3.72;;
71626;SDS011;59475;52.464;13.590;2023-05-07T08:02:08;4.70;;;3.50;;
71626;SDS011;59475;52.464;13.590;2023-05-07T08:04:34;4.50;;;3.30;;
71626;SDS011;59475;52.464;13.590;2023-05-07T08:07:00;3.80;;;2.93;;
71626;SDS011;59475;52.464;13.590;2023-05-07T08:09:25;4.25;;;3.40;;
71626;SDS011;59475;52.464;13.590;2023-05-07T08:11:52;3.80;;;3.10;;
71626;SDS011;59475;52.464;13.590;2023-05-07T08:14:18;4.25;;;3.13;;
71626;SDS011;59475;52.464;13.590;2023-05-07T08:16:43;4.20;;;2.93;;
71626;SDS011;59475;52.464;13.590;2023-05-07T08:19:09;2.95;;;2.65;;
71626;SDS011;59475;52.464;13.590;2023-05-07T08:21:37;5.17;;;3.10;;
71626;SDS011;59475;52.464;13.590;2023-05-07T08:24:04;4.55;;;3.35;;
71626;SDS011;59475;52.464;13.590;2023-05-07T08:26:30;4.97;;;3.03;;
71626;SDS011;59475;52.464;13.590;2023-05-07T08:28:56;5.03;;;3.10;;
71626;SDS011;59475;52.464;13.590;2023-05-07T08:31:21;5.20;;;2.93;;
71626;SDS011;59475;52.464;13.590;2023-05-07T08:33:46;2.77;;;2.30;;
71626;SDS011;59475;52.464;13.590;2023-05-07T08:36:12;3.47;;;2.43;;
71626;SDS011;59475;52.464;13.590;2023-05-07T08:38:37;4.23;;;2.93;;
71626;SDS011;59475;52.464;13.590;2023-05-07T08:41:05;4.72;;;3.00;;
71626;SDS011;59475;52.464;13.590;2023-05-07T08:43:32;3.90;;;2.80;;
71626;SDS011;59475;52.464;13.590;2023-05-07T08:45:58;4.57;;;2.80;;
71626;SDS011;59475;52.464;13.590;2023-05-07T08:48:27;6.73;;;3.00;;
71626;SDS011;59475;52.464;13.590;2023-05-07T08:50:55;5.40;;;3.08;;
71626;SDS011;59475;52.464;13.590;2023-05-07T08:53:20;4.67;;;2.87;;
71626;SDS011;59475;52.464;13.590;2023-05-07T08:55:46;4.22;;;2.92;;
71626;SDS011;59475;52.464;13.590;2023-05-07T08:58:12;4.60;;;3.35;;
71626;SDS011;59475;52.464;13.590;2023-05-07T09:00:37;4.30;;;3.03;;
71626;SDS011;59475;52.464;13.590;2023-05-07T09:03:05;4.55;;;3.08;;
71626;SDS011;59475;52.464;13.590;2023-05-07T09:05:31;5.10;;;3.00;;
71626;SDS011;59475;52.464;13.590;2023-05-07T09:07:58;3.70;;;2.83;;
71626;SDS011;59475;52.464;13.590;2023-05-07T09:10:25;5.15;;;3.08;;
71626;SDS011;59475;52.464;13.590;2023-05-07T09:12:51;4.70;;;2.60;;
71626;SDS011;59475;52.464;13.590;2023-05-07T09:15:18;4.13;;;2.97;;
71626;SDS011;59475;52.464;13.590;2023-05-07T09:17:44;3.78;;;2.63;;
71626;SDS011;59475;52.464;13.590;2023-05-07T09:20:09;3.50;;;2.60;;
71626;SDS011;59475;52.464;13.590;2023-05-07T09:22:38;3.80;;;2.60;;
71626;SDS011;59475;52.464;13.590;2023-05-07T09:25:04;3.10;;;2.40;;
71626;SDS011;59475;52.464;13.590;2023-05-07T09:27:31;3.13;;;2.53;;
71626;SDS011;59475;52.464;13.590;2023-05-07T09:29:56;4.03;;;2.50;;
71626;SDS011;59475;52.464;13.590;2023-05-07T09:32:22;2.65;;;2.38;;
71626;SDS011;59475;52.464;13.590;2023-05-07T09:34:47;2.83;;;2.10;;
71626;SDS011;59475;52.464;13.590;2023-05-07T09:37:12;3.93;;;2.80;;
71626;SDS011;59475;52.464;13.590;2023-05-07T09:39:42;3.15;;;2.05;;
71626;SDS011;59475;52.464;13.590;2023-05-07T09:42:12;3.20;;;2.15;;
71626;SDS011;59475;52.464;13.590;2023-05-07T09:44:39;2.88;;;2.10;;
71626;SDS011;59475;52.464;13.590;2023-05-07T09:47:05;2.70;;;2.00;;
71626;SDS011;59475;52.464;13.590;2023-05-07T09:49:33;3.47;;;2.20;;
71626;SDS011;59475;52.464;13.590;2023-05-07T09:52:01;4.32;;;2.05;;
71626;SDS011;59475;52.464;13.590;2023-05-07T09:54:28;5.18;;;2.13;;
71626;SDS011;59475;52.464;13.590;2023-05-07T09:56:54;2.00;;;1.77;;
71626;SDS011;59475;52.464;13.590;2023-05-07T09:59:21;2.37;;;2.17;;
71626;SDS011;59475;52.464;13.590;2023-05-07T10:01:47;3.70;;;2.00;;
71626;SDS011;59475;52.464;13.590;2023-05-07T10:04:13;4.13;;;2.00;;
71626;SDS011;59475;52.464;13.590;2023-05-07T10:06:39;4.40;;;1.80;;
71626;SDS011;59475;52.464;13.590;2023-05-07T10:09:05;4.23;;;2.03;;
71626;SDS011;59475;52.464;13.590;2023-05-07T10:11:35;3.15;;;1.48;;
71626;SDS011;59475;52.464;13.590;2023-05-07T10:14:01;2.22;;;1.85;;
71626;SDS011;59475;52.464;13.590;2023-05-07T10:16:28;2.25;;;1.75;;
71626;SDS011;59475;52.464;13.590;2023-05-07T10:19:02;4.20;;;1.67;;
71626;SDS011;59475;52.464;13.590;2023-05-07T10:21:28;2.17;;;1.90;;
71626;SDS011;59475;52.464;13.590;2023-05-07T10:24:37;2.38;;;2.03;;
71626;SDS011;59475;52.464;13.590;2023-05-07T10:26:51;2.72;;;2.00;;
71626;SDS011;59475;52.464;13.590;2023-05-07T10:29:35;2.42;;;1.80;;
71626;SDS011;59475;52.464;13.590;2023-05-07T10:32:39;2.40;;;1.60;;
71626;SDS011;59475;52.464;13.590;2023-05-07T10:35:25;2.20;;;1.90;;
71626;SDS011;59475;52.464;13.590;2023-05-07T10:37:52;4.07;;;2.22;;
71626;SDS011;59475;52.464;13.590;2023-05-07T10:40:18;2.53;;;1.67;;
71626;SDS011;59475;52.464;13.590;2023-05-07T10:45:28;2.60;;;1.80;;
71626;SDS011;59475;52.464;13.590;2023-05-07T10:50:35;2.30;;;1.80;;
71626;SDS011;59475;52.464;13.590;2023-05-07T10:55:38;2.08;;;1.88;;
71626;SDS011;59475;52.464;13.590;2023-05-07T10:58:25;2.30;;;1.67;;
71626;SDS011;59475;52.464;13.590;2023-05-07T11:00:55;2.38;;;1.55;;
71626;SDS011;59475;52.464;13.590;2023-05-07T11:03:25;3.13;;;1.83;;
71626;SDS011;59475;52.464;13.590;2023-05-07T11:06:13;4.50;;;1.95;;
71626;SDS011;59475;52.464;13.590;2023-05-07T11:11:19;2.63;;;1.80;;
71626;SDS011;59475;52.464;13.590;2023-05-07T11:13:46;2.03;;;1.75;;
71626;SDS011;59475;52.464;13.590;2023-05-07T11:16:19;2.17;;;1.90;;
71626;SDS011;59475;52.464;13.590;2023-05-07T11:18:52;2.55;;;1.77;;
71626;SDS011;59475;52.464;13.590;2023-05-07T11:21:31;2.95;;;1.63;;
71626;SDS011;59475;52.464;13.590;2023-05-07T11:23:57;1.75;;;1.40;;
71626;SDS011;59475;52.464;13.590;2023-05-07T11:26:23;3.40;;;1.77;;
71626;SDS011;59475;52.464;13.590;2023-05-07T11:28:50;1.90;;;1.67;;
71626;SDS011;59475;52.464;13.590;2023-05-07T11:31:17;2.17;;;1.80;;
71626;SDS011;59475;52.464;13.590;2023-05-07T11:33:46;5.10;;;1.75;;
71626;SDS011;59475;52.464;13.590;2023-05-07T11:36:12;2.75;;;1.83;;
71626;SDS011;59475;52.464;13.590;2023-05-07T11:38:38;1.73;;;1.50;;
71626;SDS011;59475;52.464;13.590;2023-05-07T11:41:03;2.80;;;1.38;;
71626;SDS011;59475;52.464;13.590;2023-05-07T11:43:32;2.97;;;1.80;;
71626;SDS011;59475;52.464;13.590;2023-05-07T11:46:11;2.08;;;1.42;;
71626;SDS011;59475;52.464;13.590;2023-05-07T11:48:37;1.60;;;1.45;;
71626;SDS011;59475;52.464;13.590;2023-05-07T11:51:04;1.90;;;1.40;;
71626;SDS011;59475;52.464;13.590;2023-05-07T11:53:38;2.25;;;1.52;;
71626;SDS011;59475;52.464;13.590;2023-05-07T11:56:11;3.78;;;1.80;;
71626;SDS011;59475;52.464;13.590;2023-05-07T11:58:39;2.05;;;1.50;;
71626;SDS011;59475;52.464;13.590;2023-05-07T12:01:06;2.55;;;1.52;;
71626;SDS011;59475;52.464;13.590;2023-05-07T12:03:33;3.07;;;1.40;;
71626;SDS011;59475;52.464;13.590;2023-05-07T12:05:59;2.67;;;1.45;;
71626;SDS011;59475;52.464;13.590;2023-05-07T12:08:24;2.57;;;1.50;;
71626;SDS011;59475;52.464;13.590;2023-05-07T12:10:50;3.83;;;1.48;;
71626;SDS011;59475;52.464;13.590;2023-05-07T12:13:23;3.73;;;1.80;;
71626;SDS011;59475;52.464;13.590;2023-05-07T12:15:53;2.35;;;1.10;;
71626;SDS011;59475;52.464;13.590;2023-05-07T12:18:20;2.05;;;1.40;;
71626;SDS011;59475;52.464;13.590;2023-05-07T12:20:46;2.63;;;1.40;;
71626;SDS011;59475;52.464;13.590;2023-05-07T12:23:12;3.10;;;1.40;;
71626;SDS011;59475;52.464;13.590;2023-05-07T12:25:38;1.95;;;1.40;;
71626;SDS011;59475;52.464;13.590;2023-05-07T12:28:05;3.70;;;1.60;;
71626;SDS011;59475;52.464;13.590;2023-05-07T12:30:38;2.75;;;1.50;;
71626;SDS011;59475;52.464;13.590;2023-05-07T12:33:04;2.17;;;1.38;;
71626;SDS011;59475;52.464;13.590;2023-05-07T12:35:30;1.97;;;1.43;;
71626;SDS011;59475;52.464;13.590;2023-05-07T12:37:57;1.88;;;1.30;;
71626;SDS011;59475;52.464;13.590;2023-05-07T12:40:24;1.83;;;1.40;;
71626;SDS011;59475;52.464;13.590;2023-05-07T12:43:00;2.33;;;1.80;;
71626;SDS011;59475;52.464;13.590;2023-05-07T12:45:26;2.00;;;1.67;;
71626;SDS011;59475;52.464;13.590;2023-05-07T12:47:51;2.42;;;1.45;;
71626;SDS011;59475;52.464;13.590;2023-05-07T12:50:16;1.90;;;1.47;;
71626;SDS011;59475;52.464;13.590;2023-05-07T12:52:45;1.60;;;1.50;;
71626;SDS011;59475;52.464;13.590;2023-05-07T12:55:16;3.75;;;1.30;;
71626;SDS011;59475;52.464;13.590;2023-05-07T12:57:42;1.42;;;1.30;;
71626;SDS011;59475;52.464;13.590;2023-05-07T13:00:13;1.63;;;1.30;;
71626;SDS011;59475;52.464;13.590;2023-05-07T13:02:40;2.03;;;1.40;;
71626;SDS011;59475;52.464;13.590;2023-05-07T13:05:09;3.08;;;1.50;;
71626;SDS011;59475;52.464;13.590;2023-05-07T13:07:34;1.63;;;1.20;;
71626;SDS011;59475;52.464;13.590;2023-05-07T13:10:01;1.67;;;1.40;;
71626;SDS011;59475;52.464;13.590;2023-05-07T13:12:27;3.20;;;1.55;;
71626;SDS011;59475;52.464;13.590;2023-05-07T13:14:52;2.77;;;1.40;;
71626;SDS011;59475;52.464;13.590;2023-05-07T13:17:18;1.60;;;1.23;;
71626;SDS011;59475;52.464;13.590;2023-05-07T13:19:43;1.53;;;1.40;;
71626;SDS011;59475;52.464;13.590;2023-05-07T13:22:10;2.83;;;1.70;;
71626;SDS011;59475;52.464;13.590;2023-05-07T13:24:35;3.42;;;1.55;;
71626;SDS011;59475;52.464;13.590;2023-05-07T13:27:01;2.90;;;1.50;;
71626;SDS011;59475;52.464;13.590;2023-05-07T13:29:26;2.13;;;1.30;;
71626;SDS011;59475;52.464;13.590;2023-05-07T13:31:58;1.30;;;1.20;;
71626;SDS011;59475;52.464;13.590;2023-05-07T13:34:23;2.85;;;1.40;;
71626;SDS011;59475;52.464;13.590;2023-05-07T13:36:48;2.53;;;1.50;;
71626;SDS011;59475;52.464;13.590;2023-05-07T13:39:14;3.23;;;1.43;;
71626;SDS011;59475;52.464;13.590;2023-05-07T13:41:40;1.75;;;1.40;;
71626;SDS011;59475;52.464;13.590;2023-05-07T13:44:05;1.63;;;1.40;;
71626;SDS011;59475;52.464;13.590;2023-05-07T13:46:31;1.80;;;1.40;;
71626;SDS011;59475;52.464;13.590;2023-05-07T13:48:56;2.90;;;1.63;;
71626;SDS011;59475;52.464;13.590;2023-05-07T13:51:23;3.00;;;1.30;;
71626;SDS011;59475;52.464;13.590;2023-05-07T13:53:48;1.55;;;1.30;;
71626;SDS011;59475;52.464;13.590;2023-05-07T13:56:14;3.50;;;1.20;;
71626;SDS011;59475;52.464;13.590;2023-05-07T13:58:40;2.42;;;1.50;;
71626;SDS011;59475;52.464;13.590;2023-05-07T14:01:05;1.77;;;1.20;;
71626;SDS011;59475;52.464;13.590;2023-05-07T14:03:31;2.65;;;1.55;;
71626;SDS011;59475;52.464;13.590;2023-05-07T14:05:58;1.90;;;1.50;;
71626;SDS011;59475;52.464;13.590;2023-05-07T14:08:25;1.77;;;1.30;;
71626;SDS011;59475;52.464;13.590;2023-05-07T14:10:50;3.05;;;1.40;;
71626;SDS011;59475;52.464;13.590;2023-05-07T14:13:16;1.60;;;1.50;;
71626;SDS011;59475;52.464;13.590;2023-05-07T14:15:41;2.85;;;1.48;;
71626;SDS011;59475;52.464;13.590;2023-05-07T14:18:11;4.77;;;1.60;;
71626;SDS011;59475;52.464;13.590;2023-05-07T14:20:36;3.40;;;1.33;;
71626;SDS011;59475;52.464;13.590;2023-05-07T14:23:02;1.70;;;1.50;;
71626;SDS011;59475;52.464;13.590;2023-05-07T14:25:28;1.83;;;1.58;;
71626;SDS011;59475;52.464;13.590;2023-05-07T14:27:53;1.70;;;1.50;;
71626;SDS011;59475;52.464;13.590;2023-05-07T14:30:19;1.93;;;1.73;;
71626;SDS011;59475;52.464;13.590;2023-05-07T14:32:44;3.13;;;1.52;;